Time;durP1;ratioP1;P1;durP2;ratioP2;P2;SDS_P1;SDS_P2;PMS_P1;PMS_P2;Temp;Humidity;BMP_temperature;BMP_pressure;BME280_temperature;BME280_humidity;BME280_pressure;Samples;Min_cycle;Max_cycle;Signal;HPM_P1;HPM_P2
2021/08/01 00:01:25;;;;;;;28.02;19.75;;;14.30;99.90;;;;;;5012423;28;20069;-81
2021/08/01 00:03:53;;;;;;;18.90;15.05;;;14.30;99.90;;;;;;5037132;28;20049;-81
2021/08/01 00:06:25;;;;;;;22.63;16.17;;;14.20;99.90;;;;;;5017764;28;20521;-82
2021/08/01 00:08:53;;;;;;;21.17;16.10;;;14.10;99.90;;;;;;5047900;28;20057;-84
2021/08/01 00:11:20;;;;;;;19.92;14.48;;;14.10;99.90;;;;;;5036948;28;20056;-81
2021/08/01 00:13:47;;;;;;;21.33;14.95;;;13.90;99.90;;;;;;5034013;28;20080;-82
2021/08/01 00:16:14;;;;;;;20.00;15.45;;;13.90;99.90;;;;;;5012792;28;20048;-84
2021/08/01 00:18:41;;;;;;;23.13;14.90;;;14.00;99.90;;;;;;5037077;28;20055;-86
2021/08/01 00:21:08;;;;;;;23.40;16.73;;;14.10;99.90;;;;;;5005939;28;20161;-85
2021/08/01 00:23:35;;;;;;;25.70;17.67;;;13.80;99.90;;;;;;4996009;28;20072;-80
2021/08/01 00:26:02;;;;;;;23.52;16.88;;;14.00;99.90;;;;;;5010730;28;20045;-81
2021/08/01 00:28:29;;;;;;;26.88;16.88;;;14.10;99.90;;;;;;4994595;28;20049;-79
2021/08/01 00:30:59;;;;;;;24.60;16.95;;;14.00;99.90;;;;;;5009420;28;20075;-79
2021/08/01 00:33:26;;;;;;;21.45;15.60;;;14.10;99.90;;;;;;4994731;28;20056;-85
2021/08/01 00:35:53;;;;;;;21.65;15.70;;;14.20;99.90;;;;;;4994767;28;20053;-83
2021/08/01 00:38:20;;;;;;;22.05;15.82;;;14.10;99.90;;;;;;5013348;28;20041;-84
2021/08/01 00:40:47;;;;;;;19.92;15.77;;;14.20;99.90;;;;;;5014630;28;20123;-83
2021/08/01 00:43:14;;;;;;;18.83;14.10;;;14.30;99.90;;;;;;5031992;28;20139;-82
2021/08/01 00:45:42;;;;;;;25.45;15.68;;;14.30;99.90;;;;;;5030476;28;20417;-80
2021/08/01 00:48:11;;;;;;;19.23;15.02;;;14.10;99.90;;;;;;5031243;28;20041;-80
2021/08/01 00:50:43;;;;;;;21.08;14.15;;;13.90;99.90;;;;;;5019456;28;20057;-80
2021/08/01 00:53:11;;;;;;;20.42;13.45;;;13.80;99.90;;;;;;5000432;28;20050;-81
2021/08/01 00:55:41;;;;;;;16.90;13.50;;;13.80;99.90;;;;;;5003500;28;20221;-80
2021/08/01 00:58:09;;;;;;;19.73;14.05;;;13.80;99.90;;;;;;5016428;28;20418;-81
2021/08/01 01:03:23;;;;;;;18.35;13.70;;;14.10;99.90;;;;;;5041954;28;20490;-82
2021/08/01 01:06:01;;;;;;;16.83;13.82;;;14.10;99.90;;;;;;5027636;28;20051;-84
2021/08/01 01:08:47;;;;;;;19.15;14.43;;;14.20;99.90;;;;;;5019189;28;20380;-81
2021/08/01 01:11:38;;;;;;;18.48;14.30;;;14.20;99.90;;;;;;4993790;28;20617;-80
2021/08/01 01:14:07;;;;;;;20.60;14.10;;;14.10;99.90;;;;;;5025966;28;20050;-84
2021/08/01 01:16:41;;;;;;;21.08;14.82;;;14.10;99.90;;;;;;5025377;28;20178;-82
2021/08/01 01:19:14;;;;;;;19.05;13.02;;;14.10;99.90;;;;;;5008092;28;20049;-82
2021/08/01 01:22:05;;;;;;;19.08;14.90;;;14.00;99.90;;;;;;5020657;28;20041;-82
2021/08/01 01:24:38;;;;;;;19.00;14.65;;;14.00;99.90;;;;;;5015876;28;20041;-81
2021/08/01 01:28:00;;;;;;;20.52;15.15;;;13.90;99.90;;;;;;5014556;28;20406;-81
2021/08/01 01:30:29;;;;;;;21.17;15.82;;;13.90;99.90;;;;;;4988816;28;20219;-81
2021/08/01 01:33:07;;;;;;;23.80;15.38;;;14.00;99.90;;;;;;5031411;28;20084;-80
2021/08/01 01:35:40;;;;;;;23.60;15.95;;;13.90;99.90;;;;;;5033731;28;20047;-81
2021/08/01 01:38:07;;;;;;;22.65;15.68;;;13.80;99.90;;;;;;5018007;28;20094;-81
2021/08/01 01:40:54;;;;;;;23.40;16.77;;;13.70;99.90;;;;;;5036787;28;20110;-80
2021/08/01 01:43:30;;;;;;;29.08;19.17;;;13.60;99.90;;;;;;5034016;28;20049;-83
2021/08/01 01:45:58;;;;;;;26.52;18.77;;;13.60;99.90;;;;;;5033663;28;20056;-82
2021/08/01 01:48:26;;;;;;;24.42;17.48;;;13.50;99.90;;;;;;5033990;28;20144;-83
2021/08/01 01:50:54;;;;;;;26.20;18.88;;;13.40;99.90;;;;;;5028074;28;20044;-82
2021/08/01 01:53:22;;;;;;;25.80;18.45;;;13.40;99.90;;;;;;5016585;28;20050;-81
2021/08/01 01:55:50;;;;;;;33.55;19.73;;;13.30;99.90;;;;;;5013299;28;20049;-83
2021/08/01 01:58:19;;;;;;;33.70;19.90;;;13.30;99.90;;;;;;5014501;28;20041;-83
2021/08/01 02:00:46;;;;;;;27.05;18.98;;;13.30;99.90;;;;;;5014101;28;20045;-81
2021/08/01 02:03:13;;;;;;;26.15;19.27;;;13.10;99.90;;;;;;5014373;28;20049;-82
2021/08/01 02:05:59;;;;;;;;;;;13.20;99.90;;;;;;5017406;28;20293;-84
2021/08/01 02:09:18;;;;;;;27.27;18.92;;;13.10;99.90;;;;;;5014614;28;20071;-85
2021/08/01 02:12:15;;;;;;;28.15;19.20;;;13.10;99.90;;;;;;5029357;28;20041;-82
2021/08/01 02:14:56;;;;;;;34.42;21.45;;;13.10;99.90;;;;;;5017582;28;20068;-83
2021/08/01 02:17:58;;;;;;;33.88;20.88;;;13.10;99.90;;;;;;5033323;28;20045;-82
2021/08/01 02:20:31;;;;;;;37.05;22.40;;;12.80;99.90;;;;;;5048029;28;20040;-81
2021/08/01 02:23:19;;;;;;;31.23;20.45;;;12.80;99.90;;;;;;5024635;28;20278;-79
2021/08/01 02:25:48;;;;;;;29.35;22.15;;;12.80;99.90;;;;;;4996936;28;20105;-79
2021/08/01 02:28:19;;;;;;;36.17;21.95;;;12.80;99.90;;;;;;5015262;28;20144;-79
2021/08/01 02:30:47;;;;;;;46.72;26.48;;;12.80;99.90;;;;;;5019839;28;20051;-79
2021/08/01 02:33:16;;;;;;;40.38;25.25;;;12.70;99.90;;;;;;5044653;23;20029;-76
2021/08/01 02:35:44;;;;;;;39.75;25.83;;;12.60;99.90;;;;;;5021952;28;20203;-76
2021/08/01 02:38:14;;;;;;;34.10;22.25;;;12.60;99.90;;;;;;5006872;28;20045;-76
2021/08/01 02:40:42;;;;;;;38.33;24.92;;;12.60;99.90;;;;;;5022737;28;20054;-76
2021/08/01 02:43:13;;;;;;;39.20;24.13;;;12.70;99.90;;;;;;4988309;28;20038;-76
2021/08/01 02:45:42;;;;;;;35.80;24.17;;;12.70;99.90;;;;;;5002529;28;20055;-75
2021/08/01 02:48:11;;;;;;;33.83;22.30;;;12.60;99.90;;;;;;5002738;28;20054;-75
2021/08/01 02:50:40;;;;;;;32.67;23.10;;;12.60;99.90;;;;;;5006934;28;20054;-77
2021/08/01 02:53:10;;;;;;;28.27;20.15;;;12.70;99.90;;;;;;5008848;28;20244;-77
2021/08/01 02:55:43;;;;;;;32.92;23.10;;;12.60;99.90;;;;;;5009342;28;20422;-77
2021/08/01 02:58:10;;;;;;;33.03;22.58;;;12.60;99.90;;;;;;4989053;28;20322;-77
2021/08/01 03:00:47;;;;;;;34.70;23.23;;;12.60;99.90;;;;;;5002726;28;20045;-77
2021/08/01 03:03:19;;;;;;;34.92;24.20;;;12.80;99.90;;;;;;5024597;28;20123;-77
2021/08/01 03:05:47;;;;;;;38.05;24.95;;;12.80;99.90;;;;;;5008167;28;20502;-77
2021/08/01 03:08:14;;;;;;;31.27;21.25;;;12.80;99.90;;;;;;4994449;28;20746;-77
2021/08/01 03:10:43;;;;;;;28.17;20.45;;;12.70;99.90;;;;;;4994357;28;20072;-77
2021/08/01 03:13:11;;;;;;;27.90;19.83;;;12.80;99.90;;;;;;4979513;28;20072;-76
2021/08/01 03:15:39;;;;;;;31.02;21.50;;;12.80;99.90;;;;;;5005999;28;20065;-76
2021/08/01 03:18:07;;;;;;;28.95;20.58;;;12.80;99.90;;;;;;5006197;28;20061;-77
2021/08/01 03:20:35;;;;;;;29.58;21.02;;;12.80;99.90;;;;;;5007185;28;20052;-75
2021/08/01 03:23:22;;;;;;;30.35;21.20;;;12.70;99.90;;;;;;4989851;28;20462;-77
2021/08/01 03:26:09;;;;;;;33.17;22.05;;;12.80;99.90;;;;;;5020169;28;20196;-76
2021/08/01 03:28:41;;;;;;;40.20;25.02;;;12.90;99.90;;;;;;5007616;28;20053;-75
2021/08/01 03:31:07;;;;;;;37.42;23.10;;;12.90;99.90;;;;;;5007038;28;20053;-76
2021/08/01 03:33:41;;;;;;;33.65;22.38;;;12.80;99.90;;;;;;5008132;28;20102;-76
2021/08/01 03:36:08;;;;;;;36.42;21.23;;;12.70;99.90;;;;;;5044373;28;20109;-76
2021/08/01 03:38:57;;;;;;;33.72;22.58;;;12.60;99.90;;;;;;5043144;28;20045;-75
2021/08/01 03:41:35;;;;;;;39.88;25.55;;;12.60;99.90;;;;;;5026673;28;20042;-76
2021/08/01 03:44:03;;;;;;;38.33;24.88;;;12.80;99.90;;;;;;4997740;28;20285;-77
2021/08/01 03:46:29;;;;;;;38.55;24.67;;;12.80;99.90;;;;;;4952734;28;20050;-77
2021/08/01 03:48:56;;;;;;;40.95;25.35;;;12.90;99.90;;;;;;4984419;28;20108;-76
2021/08/01 03:51:23;;;;;;;42.80;26.50;;;12.80;99.90;;;;;;5013690;28;20037;-77
2021/08/01 03:53:50;;;;;;;40.70;26.90;;;12.90;99.90;;;;;;5002196;28;20670;-76
2021/08/01 03:56:17;;;;;;;37.90;25.15;;;12.80;99.90;;;;;;5003646;28;20045;-77
2021/08/01 03:58:43;;;;;;;36.95;23.88;;;12.80;99.90;;;;;;5004552;28;20053;-77
2021/08/01 04:01:13;;;;;;;36.90;24.48;;;12.90;99.90;;;;;;5003399;28;20469;-77
2021/08/01 04:03:40;;;;;;;39.00;24.73;;;12.80;99.90;;;;;;5000464;28;20058;-77
2021/08/01 04:06:07;;;;;;;41.33;25.20;;;12.70;99.90;;;;;;4982961;28;20054;-76
2021/08/01 04:08:34;;;;;;;42.53;27.75;;;12.80;99.90;;;;;;5000791;28;20056;-76
2021/08/01 04:11:04;;;;;;;47.05;26.67;;;12.90;99.90;;;;;;4972965;28;20515;-76
2021/08/01 04:13:34;;;;;;;48.13;28.00;;;12.90;99.90;;;;;;4987337;28;20068;-77
2021/08/01 04:16:00;;;;;;;57.20;32.70;;;13.00;99.90;;;;;;4987043;28;20108;-76
2021/08/01 04:18:29;;;;;;;52.10;31.17;;;13.00;99.90;;;;;;4986933;28;20050;-77
2021/08/01 04:20:56;;;;;;;53.00;31.05;;;12.90;99.90;;;;;;5009855;28;20045;-76
2021/08/01 04:23:23;;;;;;;52.53;30.45;;;13.00;99.90;;;;;;4976360;28;20308;-76
2021/08/01 04:25:50;;;;;;;47.88;30.98;;;13.10;99.90;;;;;;5003752;28;20414;-76
2021/08/01 04:28:16;;;;;;;46.47;27.90;;;13.10;99.90;;;;;;4970249;28;20061;-76
2021/08/01 04:30:43;;;;;;;47.70;28.88;;;13.20;99.90;;;;;;5003441;28;20111;-77
2021/08/01 04:33:10;;;;;;;42.17;27.85;;;13.20;99.90;;;;;;4989375;28;20876;-76
2021/08/01 04:35:37;;;;;;;53.92;32.28;;;13.40;99.90;;;;;;4989809;28;20052;-77
2021/08/01 04:38:04;;;;;;;38.88;25.92;;;13.30;99.90;;;;;;5023157;28;20051;-76
2021/08/01 04:40:31;;;;;;;39.88;27.85;;;13.40;99.90;;;;;;5023148;28;20072;-76
2021/08/01 04:42:57;;;;;;;45.10;26.83;;;13.40;99.90;;;;;;5016114;28;20057;-76
2021/08/01 04:45:24;;;;;;;35.92;24.08;;;13.40;99.90;;;;;;5015582;28;20687;-76
2021/08/01 04:47:51;;;;;;;36.72;25.73;;;13.40;99.90;;;;;;4994244;28;20138;-77
2021/08/01 04:50:18;;;;;;;35.38;21.77;;;13.30;99.90;;;;;;4992903;28;20053;-77
2021/08/01 04:52:45;;;;;;;35.30;23.48;;;13.50;99.90;;;;;;4996107;28;20056;-76
2021/08/01 04:55:12;;;;;;;41.42;26.45;;;13.60;99.90;;;;;;4989409;28;20454;-77
2021/08/01 04:57:39;;;;;;;47.58;30.35;;;13.80;99.90;;;;;;4986539;28;20546;-76
2021/08/01 05:00:07;;;;;;;50.88;33.25;;;13.90;99.90;;;;;;4987005;28;20605;-78
2021/08/01 05:02:34;;;;;;;50.55;32.45;;;13.90;99.90;;;;;;5004211;28;20336;-77
2021/08/01 05:05:03;;;;;;;52.13;32.47;;;13.90;99.90;;;;;;4984717;28;20129;-77
2021/08/01 05:07:30;;;;;;;55.67;33.72;;;14.00;99.90;;;;;;5002541;28;20278;-77
2021/08/01 05:09:59;;;;;;;51.03;32.35;;;14.00;99.90;;;;;;4986765;28;20053;-78
2021/08/01 05:12:28;;;;;;;54.58;32.90;;;14.10;99.90;;;;;;5003731;28;20054;-77
2021/08/01 05:14:55;;;;;;;50.17;32.13;;;14.20;99.90;;;;;;4975200;28;20054;-76
2021/08/01 05:17:21;;;;;;;45.90;29.75;;;14.20;99.90;;;;;;4965575;28;20065;-77
2021/08/01 05:19:48;;;;;;;41.13;27.40;;;14.20;99.90;;;;;;4994471;28;20059;-78
2021/08/01 05:22:15;;;;;;;48.30;29.73;;;14.30;99.90;;;;;;5013068;28;20045;-77
2021/08/01 05:24:42;;;;;;;41.35;26.67;;;14.40;99.90;;;;;;4983126;28;20042;-76
2021/08/01 05:27:09;;;;;;;39.95;28.00;;;14.40;99.90;;;;;;4986020;28;20045;-77
2021/08/01 05:29:36;;;;;;;41.25;27.08;;;14.50;99.90;;;;;;5003053;28;20141;-77
2021/08/01 05:32:04;;;;;;;43.47;29.50;;;14.50;99.90;;;;;;5002121;28;20066;-78
2021/08/01 05:34:31;;;;;;;42.95;28.13;;;14.50;99.90;;;;;;4994952;28;20049;-81
2021/08/01 05:36:59;;;;;;;46.45;29.92;;;14.50;99.90;;;;;;4982844;28;20491;-82
2021/08/01 05:39:26;;;;;;;44.35;27.90;;;14.60;99.90;;;;;;4982242;28;20046;-81
2021/08/01 05:41:53;;;;;;;41.50;27.00;;;14.60;99.90;;;;;;4982308;28;20050;-82
2021/08/01 05:44:20;;;;;;;43.75;27.92;;;14.60;99.90;;;;;;4982362;28;20097;-81
2021/08/01 05:46:47;;;;;;;41.95;29.23;;;14.70;99.90;;;;;;5000152;28;20522;-82
2021/08/01 05:49:14;;;;;;;44.00;28.92;;;14.60;99.90;;;;;;4971277;28;20092;-82
2021/08/01 05:51:41;;;;;;;45.10;28.08;;;14.60;99.90;;;;;;5012334;28;20096;-81
2021/08/01 05:54:07;;;;;;;44.13;29.55;;;14.70;99.90;;;;;;4989633;28;20049;-81
2021/08/01 05:56:34;;;;;;;46.30;28.75;;;14.70;99.90;;;;;;4969504;28;20225;-81
2021/08/01 05:59:01;;;;;;;47.83;28.48;;;14.80;99.90;;;;;;4986158;28;20157;-81
2021/08/01 06:01:28;;;;;;;42.95;28.75;;;14.90;99.90;;;;;;4986072;28;20057;-81
2021/08/01 06:03:55;;;;;;;42.35;27.52;;;15.00;99.90;;;;;;4986751;28;20053;-82
2021/08/01 06:06:23;;;;;;;40.88;27.63;;;15.10;99.90;;;;;;4992153;28;20579;-82
2021/08/01 06:08:52;;;;;;;39.45;27.30;;;15.20;99.90;;;;;;4981515;28;20057;-82
2021/08/01 06:11:20;;;;;;;41.67;29.55;;;15.20;99.90;;;;;;4973668;28;20050;-79
2021/08/01 06:13:47;;;;;;;37.95;28.17;;;15.20;99.90;;;;;;5005425;28;20050;-77
2021/08/01 06:16:16;;;;;;;41.63;28.85;;;15.30;99.90;;;;;;4969127;28;20054;-76
2021/08/01 06:18:45;;;;;;;42.85;28.58;;;15.40;99.90;;;;;;5006495;28;20526;-77
2021/08/01 06:21:16;;;;;;;37.75;26.40;;;15.50;99.90;;;;;;4997329;28;20081;-76
2021/08/01 06:23:45;;;;;;;41.30;26.85;;;15.50;99.90;;;;;;4980550;28;20054;-77
2021/08/01 06:26:13;;;;;;;43.15;27.90;;;15.60;99.90;;;;;;5004214;28;20049;-76
2021/08/01 06:28:40;;;;;;;43.45;29.13;;;15.60;99.90;;;;;;5005142;28;20054;-78
2021/08/01 06:31:08;;;;;;;46.05;29.55;;;15.60;99.90;;;;;;4987934;28;20649;-76
2021/08/01 06:33:37;;;;;;;50.33;29.90;;;15.50;99.90;;;;;;4994785;28;20061;-77
2021/08/01 06:36:05;;;;;;;46.53;30.20;;;15.60;99.90;;;;;;5025334;28;20061;-77
2021/08/01 06:38:32;;;;;;;45.38;30.73;;;15.70;99.90;;;;;;4988152;28;20133;-77
2021/08/01 06:41:04;;;;;;;45.97;31.40;;;15.70;99.90;;;;;;4985236;28;20160;-76
2021/08/01 06:43:31;;;;;;;45.47;31.40;;;15.70;99.90;;;;;;4985902;28;20057;-77
2021/08/01 06:45:58;;;;;;;50.80;37.08;;;15.80;99.90;;;;;;4984272;28;20531;-77
2021/08/01 06:48:25;;;;;;;48.33;33.03;;;15.80;99.90;;;;;;5001659;28;20668;-77
2021/08/01 06:50:52;;;;;;;44.80;33.63;;;15.80;99.90;;;;;;4995953;28;20057;-77
2021/08/01 06:53:19;;;;;;;47.38;33.80;;;15.80;99.90;;;;;;4997341;28;20046;-77
2021/08/01 06:55:46;;;;;;;50.67;34.13;;;15.80;99.90;;;;;;5001880;28;20664;-76
2021/08/01 06:58:17;;;;;;;46.35;32.80;;;15.80;99.90;;;;;;4989235;28;20137;-76
2021/08/01 07:00:48;;;;;;;44.88;32.80;;;15.90;99.90;;;;;;4988712;28;20606;-77
2021/08/01 07:03:16;;;;;;;46.33;32.17;;;15.80;99.90;;;;;;4988948;28;20513;-77
2021/08/01 07:05:44;;;;;;;42.35;31.50;;;15.80;99.90;;;;;;5000553;28;20042;-78
2021/08/01 07:08:10;;;;;;;45.42;30.85;;;15.80;99.90;;;;;;4969721;28;20325;-77
2021/08/01 07:10:37;;;;;;;45.58;30.90;;;15.80;99.90;;;;;;4969018;28;20050;-77
2021/08/01 07:13:06;;;;;;;35.65;27.95;;;15.90;99.90;;;;;;4985341;28;20058;-77
2021/08/01 07:15:33;;;;;;;39.33;28.65;;;16.00;99.90;;;;;;4968007;28;20499;-77
2021/08/01 07:18:01;;;;;;;38.42;27.13;;;16.10;99.90;;;;;;4985383;28;20096;-76
2021/08/01 07:20:28;;;;;;;38.00;26.92;;;16.20;99.90;;;;;;5011729;28;20373;-76
2021/08/01 07:22:55;;;;;;;34.50;24.25;;;16.20;99.90;;;;;;4980777;28;20456;-76
2021/08/01 07:25:23;;;;;;;33.17;25.10;;;16.10;99.90;;;;;;4987049;28;20050;-77
2021/08/01 07:27:51;;;;;;;33.35;24.88;;;16.20;99.90;;;;;;4989491;28;20498;-77
2021/08/01 07:30:19;;;;;;;32.47;23.45;;;16.20;99.90;;;;;;4952648;28;20348;-77
2021/08/01 07:32:46;;;;;;;31.60;23.88;;;16.30;99.90;;;;;;4984949;28;20150;-76
2021/08/01 07:35:13;;;;;;;36.47;24.45;;;16.20;99.90;;;;;;5005092;28;20046;-77
2021/08/01 07:37:40;;;;;;;37.47;25.38;;;16.00;99.90;;;;;;5001424;28;20068;-75
2021/08/01 07:40:07;;;;;;;33.15;24.67;;;16.00;99.90;;;;;;4984641;28;20371;-76
2021/08/01 07:42:34;;;;;;;35.80;24.98;;;16.10;99.90;;;;;;4985042;28;20054;-76
2021/08/01 07:45:04;;;;;;;34.28;24.08;;;16.20;99.90;;;;;;4983726;28;20072;-76
2021/08/01 07:47:34;;;;;;;30.65;24.83;;;16.50;99.90;;;;;;4982538;28;20394;-76
2021/08/01 07:50:03;;;;;;;35.10;26.65;;;16.60;99.90;;;;;;4993347;28;20052;-77
2021/08/01 07:52:30;;;;;;;35.30;26.27;;;16.60;99.90;;;;;;4979946;28;20049;-76
2021/08/01 07:55:00;;;;;;;37.38;28.95;;;16.70;99.90;;;;;;5003255;28;20053;-75
2021/08/01 07:57:32;;;;;;;39.55;28.90;;;16.60;99.90;;;;;;4985703;28;20108;-76
2021/08/01 08:00:02;;;;;;;40.50;28.88;;;16.70;99.90;;;;;;4986492;28;20164;-75
2021/08/01 08:02:39;;;;;;;44.65;28.10;;;16.80;99.90;;;;;;4998879;28;20081;-75
2021/08/01 08:05:08;;;;;;;36.97;27.20;;;16.90;99.90;;;;;;5001434;28;20041;-76
2021/08/01 08:07:35;;;;;;;34.15;27.55;;;16.90;99.90;;;;;;4987227;28;20120;-76
2021/08/01 08:10:03;;;;;;;36.08;27.33;;;17.00;99.90;;;;;;5004947;28;20382;-77
2021/08/01 08:12:30;;;;;;;38.25;27.40;;;16.90;99.90;;;;;;4985602;28;20442;-76
2021/08/01 08:14:57;;;;;;;37.60;26.27;;;17.10;99.90;;;;;;4986930;28;20049;-75
2021/08/01 08:17:24;;;;;;;34.53;26.80;;;17.00;99.90;;;;;;4986066;28;20058;-76
2021/08/01 08:19:51;;;;;;;37.42;23.52;;;17.20;99.90;;;;;;5011706;28;20042;-75
2021/08/01 08:22:18;;;;;;;33.95;24.50;;;17.20;99.90;;;;;;4997065;28;20099;-77
2021/08/01 08:24:44;;;;;;;32.85;23.85;;;17.20;99.90;;;;;;4997437;28;20111;-76
2021/08/01 08:27:11;;;;;;;30.60;21.38;;;17.20;99.90;;;;;;4985876;28;20280;-76
2021/08/01 08:29:38;;;;;;;27.50;21.08;;;17.20;99.90;;;;;;4986077;28;20046;-77
2021/08/01 08:32:05;;;;;;;27.90;21.08;;;17.20;99.90;;;;;;4985139;28;20080;-75
2021/08/01 08:34:32;;;;;;;27.58;21.40;;;17.10;99.90;;;;;;4999672;28;20060;-75
2021/08/01 08:37:02;;;;;;;30.00;21.30;;;17.10;99.90;;;;;;5023791;28;20353;-76
2021/08/01 08:39:28;;;;;;;28.83;20.58;;;17.10;99.90;;;;;;5005345;28;20608;-76
2021/08/01 08:41:59;;;;;;;26.65;20.63;;;17.10;99.90;;;;;;5006470;28;20419;-76
2021/08/01 08:44:27;;;;;;;26.75;20.20;;;17.10;99.90;;;;;;5002871;28;20395;-77
2021/08/01 08:46:55;;;;;;;27.42;20.27;;;17.10;99.90;;;;;;5004072;28;20069;-76
2021/08/01 08:49:23;;;;;;;26.67;20.40;;;17.30;99.90;;;;;;4988428;28;20058;-76
2021/08/01 08:51:53;;;;;;;28.90;20.83;;;17.40;99.90;;;;;;4979364;28;20253;-75
2021/08/01 08:54:30;;;;;;;21.95;18.67;;;17.50;99.90;;;;;;4985171;28;20054;-76
2021/08/01 08:57:01;;;;;;;25.27;20.70;;;17.60;99.90;;;;;;5002068;28;20068;-77
2021/08/01 08:59:28;;;;;;;30.63;23.13;;;17.60;99.90;;;;;;5003855;28;20232;-75
2021/08/01 09:01:55;;;;;;;25.30;20.40;;;17.60;99.90;;;;;;4985399;28;20045;-76
2021/08/01 09:04:23;;;;;;;22.60;19.60;;;17.70;99.90;;;;;;5002502;28;20485;-76
2021/08/01 09:06:50;;;;;;;23.77;20.08;;;18.00;99.90;;;;;;4984146;28;20061;-77
2021/08/01 09:09:17;;;;;;;20.23;18.13;;;18.60;99.90;;;;;;5002492;28;20061;-77
2021/08/01 09:11:44;;;;;;;20.00;17.08;;;19.20;99.90;;;;;;4985830;28;20077;-76
2021/08/01 09:14:21;;;;;;;21.67;18.58;;;20.00;99.90;;;;;;4988773;28;20069;-77
2021/08/01 09:16:51;;;;;;;19.25;17.25;;;20.10;99.90;;;;;;4965539;28;20129;-77
2021/08/01 09:19:39;;;;;;;19.17;17.38;;;19.90;99.90;;;;;;4988677;28;20439;-77
2021/08/01 09:22:18;;;;;;;22.88;20.58;;;19.50;99.90;;;;;;5005987;28;20509;-75
2021/08/01 09:24:51;;;;;;;21.65;19.50;;;19.40;99.90;;;;;;4999070;28;20084;-76
2021/08/01 09:27:25;;;;;;;19.67;17.85;;;19.40;99.90;;;;;;4985450;28;20061;-77
2021/08/01 09:29:52;;;;;;;20.40;18.35;;;19.00;99.90;;;;;;5002294;28;20069;-76
2021/08/01 09:32:19;;;;;;;19.73;17.70;;;18.70;99.90;;;;;;5001883;28;20049;-76
2021/08/01 09:34:48;;;;;;;19.98;17.95;;;18.70;99.90;;;;;;4969983;28;20068;-76
2021/08/01 09:37:32;;;;;;;21.13;19.10;;;18.60;99.90;;;;;;5001827;28;20161;-76
2021/08/01 09:40:06;;;;;;;21.58;19.38;;;18.50;99.90;;;;;;4986066;28;20050;-76
2021/08/01 09:42:47;;;;;;;23.40;19.80;;;18.40;99.90;;;;;;4988929;28;20454;-76
2021/08/01 09:45:18;;;;;;;22.85;20.42;;;18.50;99.90;;;;;;5003964;28;20038;-75
2021/08/01 09:47:47;;;;;;;20.30;18.27;;;18.50;99.90;;;;;;5005711;28;20049;-76
2021/08/01 09:50:15;;;;;;;22.98;20.55;;;18.30;99.90;;;;;;5013879;28;20164;-76
2021/08/01 09:52:43;;;;;;;21.77;19.23;;;18.10;99.90;;;;;;5014833;28;20049;-75
2021/08/01 09:55:20;;;;;;;27.85;20.85;;;18.10;99.90;;;;;;5002736;28;20081;-75
2021/08/01 09:57:57;;;;;;;24.13;19.85;;;18.30;99.90;;;;;;5007055;28;20050;-78
2021/08/01 10:00:24;;;;;;;20.23;18.13;;;18.50;99.90;;;;;;4992348;28;20132;-75
2021/08/01 10:02:51;;;;;;;20.25;18.05;;;18.70;99.90;;;;;;4989352;28;20045;-76
2021/08/01 10:05:23;;;;;;;18.70;16.23;;;18.70;99.90;;;;;;5003673;28;20138;-77
2021/08/01 10:07:51;;;;;;;20.10;17.85;;;18.80;99.90;;;;;;4990061;28;20534;-76
2021/08/01 10:10:23;;;;;;;17.30;15.70;;;19.00;99.90;;;;;;4988941;28;20518;-77
2021/08/01 10:12:53;;;;;;;17.77;16.10;;;18.80;99.90;;;;;;5006118;28;20502;-77
2021/08/01 10:15:21;;;;;;;17.48;15.88;;;18.80;99.90;;;;;;4982824;28;20066;-77
2021/08/01 10:17:47;;;;;;;18.85;16.65;;;18.80;99.90;;;;;;4987183;28;20074;-76
2021/08/01 10:20:17;;;;;;;19.33;17.42;;;18.90;99.90;;;;;;4985679;28;20083;-77
2021/08/01 10:22:45;;;;;;;21.75;18.30;;;18.90;99.90;;;;;;4998543;28;20041;-77
2021/08/01 10:25:20;;;;;;;19.27;17.33;;;18.90;99.90;;;;;;5003910;28;20064;-76
2021/08/01 10:27:50;;;;;;;;;;;19.00;99.90;;;;;;4954807;28;20239;-77
2021/08/01 10:30:26;;;;;;;22.13;19.52;;;18.90;99.90;;;;;;4968363;28;19922;-76
2021/08/01 10:33:04;;;;;;;21.20;19.00;;;18.70;99.90;;;;;;4970834;28;20069;-76
2021/08/01 10:35:35;;;;;;;22.95;20.48;;;18.60;99.90;;;;;;5007202;28;20742;-76
2021/08/01 10:38:03;;;;;;;23.98;21.38;;;18.50;99.90;;;;;;4991093;28;20077;-76
2021/08/01 10:40:33;;;;;;;24.20;19.88;;;18.50;99.90;;;;;;5005179;28;20042;-76
2021/08/01 10:43:09;;;;;;;20.77;18.63;;;18.60;99.90;;;;;;5005517;28;20057;-76
2021/08/01 10:45:37;;;;;;;23.92;19.95;;;19.00;99.90;;;;;;4988505;28;20410;-76
2021/08/01 10:48:07;;;;;;;20.02;18.23;;;19.40;99.90;;;;;;5005347;28;20438;-76
2021/08/01 10:50:34;;;;;;;23.77;20.27;;;19.70;99.90;;;;;;5011912;28;20048;-75
2021/08/01 10:53:20;;;;;;;20.27;18.17;;;19.90;99.90;;;;;;4996787;28;20458;-77
2021/08/01 10:55:48;;;;;;;18.10;16.20;;;19.90;99.90;;;;;;4986626;28;20046;-76
2021/08/01 10:58:16;;;;;;;18.92;17.10;;;19.70;99.90;;;;;;4971752;28;20061;-77
2021/08/01 11:00:55;;;;;;;17.98;16.20;;;19.50;99.90;;;;;;4988085;28;20525;-76
2021/08/01 11:03:26;;;;;;;17.98;16.27;;;19.40;99.90;;;;;;4988975;28;20392;-77
2021/08/01 11:05:54;;;;;;;17.48;15.68;;;19.50;99.90;;;;;;5003208;28;20394;-76
2021/08/01 11:08:21;;;;;;;18.45;16.38;;;20.00;99.90;;;;;;4973117;28;20152;-77
2021/08/01 11:11:16;;;;;;;16.42;14.82;;;20.40;99.90;;;;;;4968014;28;20436;-76
2021/08/01 11:13:46;;;;;;;25.25;16.95;;;20.30;99.90;;;;;;4969828;28;20060;-77
2021/08/01 11:16:34;;;;;;;19.63;13.05;;;19.70;99.90;;;;;;4984709;28;20077;-76
2021/08/01 11:19:32;;;;;;;16.38;13.35;;;18.60;99.90;;;;;;5002313;28;20581;-76
2021/08/01 11:21:59;;;;;;;14.95;12.32;;;17.90;99.90;;;;;;5014173;28;20053;-77
2021/08/01 11:24:26;;;;;;;16.52;12.52;;;17.70;99.90;;;;;;4990108;28;20073;-77
2021/08/01 11:27:05;;;;;;;13.73;12.32;;;17.80;99.90;;;;;;4979930;28;20046;-77
2021/08/01 11:29:31;;;;;;;25.08;13.93;;;18.20;99.90;;;;;;4989189;28;20482;-78
2021/08/01 11:32:07;;;;;;;11.02;9.02;;;18.70;99.90;;;;;;5005386;28;20060;-78
2021/08/01 11:34:34;;;;;;;11.23;10.18;;;18.90;99.90;;;;;;4986544;28;20056;-78
2021/08/01 11:37:21;;;;;;;11.15;9.70;;;19.20;99.90;;;;;;5008266;28;20157;-78
2021/08/01 11:39:55;;;;;;;10.70;9.23;;;19.40;99.90;;;;;;4988373;28;20085;-78
2021/08/01 11:42:24;;;;;;;8.32;7.53;;;19.70;99.90;;;;;;4969023;28;20267;-78
2021/08/01 11:44:58;;;;;;;8.75;7.85;;;19.90;99.90;;;;;;4952510;28;20047;-77
2021/08/01 11:47:27;;;;;;;8.90;8.10;;;20.30;99.90;;;;;;4968898;28;20042;-77
2021/08/01 11:49:55;;;;;;;8.32;7.53;;;20.40;99.90;;;;;;5006579;28;20326;-77
2021/08/01 11:52:33;;;;;;;8.05;7.25;;;20.50;99.90;;;;;;5015296;28;20426;-77
2021/08/01 11:55:01;;;;;;;7.55;6.88;;;20.70;99.90;;;;;;4987821;28;20046;-77
2021/08/01 11:57:29;;;;;;;9.88;8.18;;;20.80;99.90;;;;;;4987965;28;20318;-78
2021/08/01 11:59:57;;;;;;;8.55;7.75;;;20.60;99.90;;;;;;5003739;28;20564;-78
2021/08/01 12:02:25;;;;;;;8.43;7.72;;;20.30;99.90;;;;;;4989706;28;20050;-77
2021/08/01 12:04:54;;;;;;;8.52;7.82;;;20.00;99.90;;;;;;4986596;28;20045;-78
2021/08/01 12:07:22;;;;;;;8.82;7.95;;;19.70;99.90;;;;;;4972124;28;20046;-78
2021/08/01 12:09:49;;;;;;;9.00;8.10;;;19.50;99.90;;;;;;4988563;28;20053;-78
2021/08/01 12:12:25;;;;;;;8.32;7.63;;;19.50;99.90;;;;;;5004395;28;20113;-77
2021/08/01 12:14:55;;;;;;;10.20;9.30;;;19.50;99.90;;;;;;5006514;28;20232;-77
2021/08/01 12:17:22;;;;;;;9.90;8.95;;;19.80;99.90;;;;;;5003310;28;20115;-76
2021/08/01 12:19:51;;;;;;;9.57;8.88;;;20.50;99.90;;;;;;4973547;28;20096;-78
2021/08/01 12:22:20;;;;;;;8.77;7.97;;;21.00;99.90;;;;;;5011043;28;20049;-78
2021/08/01 12:24:57;;;;;;;8.63;7.93;;;21.70;99.90;;;;;;4988317;28;20598;-77
2021/08/01 12:27:32;;;;;;;8.88;8.15;;;21.80;99.90;;;;;;5022945;28;20402;-77
2021/08/01 12:30:02;;;;;;;;;;;21.30;99.90;;;;;;5012950;28;20081;-77
2021/08/01 12:32:42;;;;;;;8.60;7.97;;;21.20;99.90;;;;;;4968436;28;19929;-77
2021/08/01 12:35:20;;;;;;;8.50;7.80;;;21.10;99.90;;;;;;5022070;28;20567;-79
2021/08/01 12:37:57;;;;;;;9.57;8.57;;;20.90;99.90;;;;;;5008031;28;20415;-79
2021/08/01 12:40:34;;;;;;;8.27;7.57;;;20.70;99.90;;;;;;5008970;28;20042;-77
2021/08/01 12:43:06;;;;;;;9.75;8.68;;;20.60;99.90;;;;;;4976458;28;20049;-78
2021/08/01 12:45:35;;;;;;;10.40;9.43;;;20.40;99.90;;;;;;5003332;28;20061;-78
2021/08/01 12:48:09;;;;;;;8.95;8.15;;;19.90;99.90;;;;;;5004066;28;21034;-79
2021/08/01 12:50:43;;;;;;;9.75;8.75;;;19.80;99.90;;;;;;5009136;28;20061;-78